createdAt,value
2023-01-12T00:01:24.570Z,9.33
2023-01-12T00:06:16.547Z,9.08
2023-01-12T00:11:08.526Z,9.30
2023-01-12T00:16:20.257Z,9.05
2023-01-12T00:21:11.946Z,9.41
2023-01-12T00:26:03.779Z,9.38
2023-01-12T00:31:03.130Z,9.33
2023-01-12T00:35:55.079Z,9.06
2023-01-12T00:40:46.718Z,9.06
2023-01-12T00:45:38.287Z,8.93
2023-01-12T00:50:29.821Z,9.35
2023-01-12T00:55:21.582Z,8.96
2023-01-12T01:00:13.732Z,8.49
2023-01-12T01:05:05.690Z,9.31
2023-01-12T01:09:57.312Z,9.41
2023-01-12T01:14:48.962Z,9.44
2023-01-12T01:19:40.597Z,9.06
2023-01-12T01:24:32.302Z,9.38
2023-01-12T01:29:23.895Z,9.14
2023-01-12T01:34:15.814Z,9.41
2023-01-12T01:39:07.493Z,9.07
2023-01-12T01:44:03.691Z,9.61
2023-01-12T01:48:56.750Z,9.57
2023-01-12T01:53:48.954Z,9.57
2023-01-12T01:58:45.696Z,9.32
2023-01-12T02:03:38.385Z,9.56
2023-01-12T02:08:54.788Z,9.30
2023-01-12T02:14:05.093Z,9.64
2023-01-12T02:19:11.914Z,8.73
2023-01-12T02:24:28.426Z,9.64
2023-01-12T02:29:44.751Z,9.65
2023-01-12T02:35:02.057Z,9.63
2023-01-12T02:39:59.947Z,9.25
2023-01-12T02:45:09.843Z,9.17
2023-01-12T02:50:07.612Z,9.38
2023-01-12T02:55:02.012Z,9.58
2023-01-12T02:59:56.451Z,9.60
2023-01-12T03:04:48.454Z,9.59
2023-01-12T03:09:44.923Z,8.60
2023-01-12T03:14:38.530Z,8.95
2023-01-12T03:19:32.940Z,9.01
2023-01-12T03:24:39.147Z,8.73
2023-01-12T03:29:35.703Z,8.66
2023-01-12T03:34:28.554Z,8.41
2023-01-12T03:39:26.225Z,8.97
2023-01-12T03:44:29.114Z,8.53
2023-01-12T03:49:36.704Z,8.21
2023-01-12T03:54:30.850Z,8.40
2023-01-12T03:59:22.896Z,8.40
2023-01-12T04:04:15.238Z,8.84
2023-01-12T04:09:06.868Z,8.55
2023-01-12T04:13:58.481Z,8.91
2023-01-12T04:18:50.037Z,9.01
2023-01-12T04:23:41.559Z,8.98
2023-01-12T04:28:33.445Z,9.04
2023-01-12T04:33:25.067Z,8.02
2023-01-12T04:38:19.493Z,9.00
2023-01-12T04:43:12.017Z,8.99
2023-01-12T04:48:14.545Z,8.97
2023-01-12T04:53:07.924Z,8.82
2023-01-12T04:57:59.616Z,8.46
2023-01-12T05:02:58.057Z,8.84
2023-01-12T05:08:08.292Z,8.73
2023-01-12T05:12:59.855Z,8.37
2023-01-12T05:17:52.140Z,8.58
2023-01-12T05:22:43.714Z,8.29
2023-01-12T05:27:35.281Z,8.49
2023-01-12T05:32:27.119Z,8.00
2023-01-12T05:37:18.685Z,8.20
2023-01-12T05:42:28.964Z,8.33
2023-01-12T05:47:20.561Z,8.26
2023-01-12T05:52:12.501Z,8.11
2023-01-12T05:57:04.137Z,8.23
2023-01-12T06:01:55.817Z,8.24
2023-01-12T06:06:48.727Z,7.93
2023-01-12T06:11:58.914Z,7.34
2023-01-12T06:16:50.453Z,8.29
2023-01-12T06:21:42.105Z,8.25
2023-01-12T06:26:33.650Z,8.28
2023-01-12T06:31:25.273Z,8.03
2023-01-12T06:36:16.898Z,7.93
2023-01-12T06:41:29.694Z,7.81
2023-01-12T06:46:21.295Z,8.31
2023-01-12T06:51:12.887Z,7.89
2023-01-12T06:56:04.832Z,8.21
2023-01-12T07:01:04.562Z,8.01
2023-01-12T07:06:00.191Z,8.14
2023-01-12T07:10:51.805Z,8.31
2023-01-12T07:15:43.369Z,8.29
2023-01-12T07:20:35.601Z,7.83
2023-01-12T07:25:27.711Z,8.39
2023-01-12T07:30:21.273Z,8.03
2023-01-12T07:35:13.071Z,8.34
2023-01-12T07:40:05.129Z,8.48
2023-01-12T07:44:56.670Z,8.71
2023-01-12T07:49:48.284Z,8.34
2023-01-12T07:54:40.050Z,8.45
2023-01-12T07:59:31.591Z,8.83
2023-01-12T08:04:23.138Z,9.05
2023-01-12T08:09:14.770Z,7.89
2023-01-12T08:14:06.490Z,8.97
2023-01-12T08:19:05.715Z,8.87
2023-01-12T08:24:00.303Z,9.17
2023-01-12T08:29:02.425Z,9.40
2023-01-12T08:33:55.373Z,9.32
2023-01-12T08:38:47.038Z,9.23
2023-01-12T08:43:57.268Z,9.42
2023-01-12T08:48:48.871Z,9.05
2023-01-12T08:53:40.449Z,9.13
2023-01-12T08:58:32.176Z,9.70
2023-01-12T09:03:23.730Z,8.76
2023-01-12T09:08:15.266Z,9.31
2023-01-12T09:13:07.080Z,9.87
2023-01-12T09:17:58.632Z,9.92
2023-01-12T09:22:50.207Z,9.99
2023-01-12T09:27:41.792Z,10.01
2023-01-12T09:32:36.788Z,9.66
2023-01-12T09:37:28.911Z,9.87
2023-01-12T09:42:41.037Z,10.13
2023-01-12T09:47:40.356Z,9.96
2023-01-12T09:52:55.834Z,10.23
2023-01-12T09:58:29.021Z,10.27
2023-01-12T10:03:30.029Z,10.29
2023-01-12T10:08:30.734Z,10.28
2023-01-12T10:13:23.458Z,9.77
2023-01-12T10:18:23.734Z,10.28
2023-01-12T10:23:20.221Z,10.04
2023-01-12T10:28:24.201Z,10.42
2023-01-12T10:33:19.291Z,10.27
2023-01-12T10:38:20.011Z,10.59
2023-01-12T10:43:21.713Z,10.69
2023-01-12T10:48:21.968Z,10.57
2023-01-12T10:53:17.384Z,10.80
2023-01-12T10:58:22.595Z,10.46
2023-01-12T11:03:37.983Z,10.82
2023-01-12T11:08:29.628Z,10.89
2023-01-12T11:13:36.511Z,10.80
2023-01-12T11:18:51.195Z,11.00
2023-01-12T11:24:09.180Z,11.10
2023-01-12T11:29:14.384Z,10.81
2023-01-12T11:34:17.809Z,10.81
2023-01-12T11:39:23.522Z,10.30
2023-01-12T11:44:21.158Z,10.99
2023-01-12T11:49:36.530Z,10.87
2023-01-12T11:54:30.611Z,11.14
2023-01-12T11:59:43.863Z,11.48
2023-01-12T12:04:43.119Z,11.05
2023-01-12T12:09:46.119Z,11.30
2023-01-12T12:14:54.988Z,11.28
2023-01-12T12:19:49.601Z,11.22
2023-01-12T12:25:03.133Z,10.88
2023-01-12T12:30:17.783Z,11.24
2023-01-12T12:35:41.487Z,10.92
2023-01-12T12:41:24.352Z,10.26
2023-01-12T12:46:37.854Z,11.06
2023-01-12T12:51:32.278Z,11.11
2023-01-12T12:56:25.424Z,10.80
2023-01-12T13:01:21.392Z,11.01
2023-01-12T13:06:24.388Z,11.02
2023-01-12T13:11:16.927Z,10.98
2023-01-12T13:16:11.606Z,11.04
2023-01-12T13:21:05.509Z,10.69
2023-01-12T13:25:57.902Z,10.77
2023-01-12T13:30:55.420Z,10.84
2023-01-12T13:35:47.154Z,10.95
2023-01-12T13:40:38.917Z,11.10
2023-01-12T13:45:32.027Z,10.91
2023-01-12T13:50:27.382Z,11.23
2023-01-12T13:55:25.674Z,11.31
2023-01-12T14:00:22.112Z,10.86
2023-01-12T14:05:13.679Z,11.23
2023-01-12T14:10:19.265Z,10.81
2023-01-12T14:15:36.760Z,11.17
2023-01-12T14:20:34.057Z,11.10
2023-01-12T14:25:26.023Z,10.89
2023-01-12T14:30:17.836Z,10.64
2023-01-12T14:35:22.584Z,10.82
2023-01-12T14:40:33.995Z,10.73
2023-01-12T14:45:45.318Z,10.50
2023-01-12T14:50:36.952Z,10.36
2023-01-12T14:55:39.536Z,10.74
2023-01-12T15:00:34.520Z,10.18
2023-01-12T15:05:27.896Z,10.70
2023-01-12T15:10:19.412Z,10.78
2023-01-12T15:15:18.162Z,10.87
2023-01-12T15:20:30.913Z,10.95
2023-01-12T15:25:38.082Z,10.70
2023-01-12T15:30:32.101Z,10.81
2023-01-12T15:35:29.577Z,11.00
2023-01-12T15:40:22.405Z,11.01
2023-01-12T15:45:32.739Z,10.90
2023-01-12T15:50:24.441Z,10.79
2023-01-12T15:55:20.633Z,11.13
2023-01-12T16:00:17.311Z,10.84
2023-01-12T16:05:11.218Z,11.14
2023-01-12T16:10:03.625Z,11.15
2023-01-12T16:14:57.311Z,10.79
2023-01-12T16:19:49.134Z,11.00
2023-01-12T16:24:41.031Z,10.88
2023-01-12T16:29:32.738Z,10.86
2023-01-12T16:34:24.455Z,10.78
2023-01-12T16:39:16.418Z,10.85
2023-01-12T16:44:09.756Z,10.36
2023-01-12T16:49:04.676Z,11.07
2023-01-12T16:53:59.286Z,10.78
2023-01-12T16:58:51.879Z,9.54
2023-01-12T17:03:43.758Z,10.65
2023-01-12T17:08:35.903Z,10.79
2023-01-12T17:13:27.740Z,11.21
2023-01-12T17:18:19.678Z,10.82
2023-01-12T17:23:11.329Z,11.21
2023-01-12T17:28:02.977Z,10.83
2023-01-12T17:32:54.599Z,11.11
2023-01-12T17:37:46.183Z,10.85
2023-01-12T17:42:56.394Z,11.22
2023-01-12T17:47:48.039Z,10.93
2023-01-12T17:52:39.999Z,10.70
2023-01-12T17:57:31.651Z,11.17
2023-01-12T18:02:23.444Z,10.66
2023-01-12T18:07:15.150Z,10.53
2023-01-12T18:12:06.861Z,10.64
2023-01-12T18:16:58.547Z,10.71
2023-01-12T18:21:50.427Z,9.97
2023-01-12T18:26:42.150Z,10.64
2023-01-12T18:31:38.229Z,10.60
2023-01-12T18:36:30.539Z,10.54
2023-01-12T18:41:41.626Z,10.26
2023-01-12T18:46:53.405Z,10.74
2023-01-12T18:52:03.764Z,10.81
2023-01-12T18:56:55.390Z,10.73
2023-01-12T19:01:47.059Z,10.02
2023-01-12T19:06:44.081Z,9.61
2023-01-12T19:11:37.389Z,10.59
2023-01-12T19:16:47.852Z,11.02
2023-01-12T19:21:58.467Z,10.98
2023-01-12T19:27:08.989Z,11.00
2023-01-12T19:32:00.591Z,10.55
2023-01-12T19:36:52.887Z,10.95
2023-01-12T19:42:03.269Z,10.92
2023-01-12T19:46:54.894Z,10.80
2023-01-12T19:51:47.437Z,10.73
2023-01-12T19:56:39.053Z,10.64
2023-01-12T20:01:31.186Z,10.30
2023-01-12T20:06:22.897Z,10.60
2023-01-12T20:11:15.624Z,10.30
2023-01-12T20:16:09.365Z,10.72
2023-01-12T20:21:01.053Z,10.33
2023-01-12T20:25:52.969Z,10.63
2023-01-12T20:30:44.710Z,10.53
2023-01-12T20:35:40.600Z,10.66
2023-01-12T20:40:32.444Z,10.84
2023-01-12T20:45:24.649Z,10.61
2023-01-12T20:50:18.796Z,10.92
2023-01-12T20:55:10.413Z,10.55
2023-01-12T21:00:02.230Z,10.85
2023-01-12T21:04:53.803Z,10.72
2023-01-12T21:09:45.407Z,10.66
2023-01-12T21:14:37.264Z,10.50
2023-01-12T21:19:29.735Z,11.02
2023-01-12T21:24:21.483Z,11.04
2023-01-12T21:29:13.309Z,11.05
2023-01-12T21:34:04.952Z,10.93
2023-01-12T21:38:56.803Z,10.94
2023-01-12T21:43:49.768Z,10.99
2023-01-12T21:48:41.332Z,10.81
2023-01-12T21:53:33.309Z,10.93
2023-01-12T21:58:26.412Z,10.83
2023-01-12T22:03:18.351Z,10.29
2023-01-12T22:08:10.943Z,10.53
2023-01-12T22:13:05.755Z,10.45
2023-01-12T22:17:57.395Z,10.27
2023-01-12T22:22:49.045Z,10.60
2023-01-12T22:27:43.628Z,10.55
2023-01-12T22:32:35.337Z,10.66
2023-01-12T22:37:28.408Z,10.74
2023-01-12T22:42:21.260Z,10.64
2023-01-12T22:47:15.616Z,10.70
2023-01-12T22:52:07.847Z,10.87
2023-01-12T22:57:00.079Z,10.68
2023-01-12T23:01:53.128Z,10.93
2023-01-12T23:06:44.628Z,10.98
2023-01-12T23:11:36.224Z,10.85
2023-01-12T23:16:28.526Z,10.97
2023-01-12T23:21:26.394Z,10.98
2023-01-12T23:26:24.660Z,11.02
2023-01-12T23:31:22.161Z,10.75
2023-01-12T23:36:16.362Z,11.11
2023-01-12T23:41:18.190Z,10.60
2023-01-12T23:46:11.243Z,10.99
2023-01-12T23:51:04.170Z,11.13
2023-01-12T23:55:56.583Z,10.89
